sensor_id;sensor_type;location;lat;lon;timestamp;P1;durP1;ratioP1;P2;durP2;ratioP2
56481;SDS011;42384;45.186;19.958;2023-02-15T00:01:39;31.75;;;19.00;;
56481;SDS011;42384;45.186;19.958;2023-02-15T00:04:06;36.13;;;20.73;;
56481;SDS011;42384;45.186;19.958;2023-02-15T00:06:33;32.40;;;18.67;;
56481;SDS011;42384;45.186;19.958;2023-02-15T00:08:59;34.83;;;20.55;;
56481;SDS011;42384;45.186;19.958;2023-02-15T00:11:26;37.30;;;20.57;;
56481;SDS011;42384;45.186;19.958;2023-02-15T00:16:42;33.60;;;19.95;;
56481;SDS011;42384;45.186;19.958;2023-02-15T00:19:09;36.72;;;20.98;;
56481;SDS011;42384;45.186;19.958;2023-02-15T00:21:35;32.55;;;19.40;;
56481;SDS011;42384;45.186;19.958;2023-02-15T00:24:02;33.25;;;18.73;;
56481;SDS011;42384;45.186;19.958;2023-02-15T00:26:29;35.00;;;20.70;;
56481;SDS011;42384;45.186;19.958;2023-02-15T00:28:55;33.70;;;20.03;;
56481;SDS011;42384;45.186;19.958;2023-02-15T00:31:24;33.95;;;20.65;;
56481;SDS011;42384;45.186;19.958;2023-02-15T00:33:50;32.55;;;18.85;;
56481;SDS011;42384;45.186;19.958;2023-02-15T00:36:16;34.00;;;19.77;;
56481;SDS011;42384;45.186;19.958;2023-02-15T00:38:42;31.55;;;19.65;;
56481;SDS011;42384;45.186;19.958;2023-02-15T00:41:09;37.70;;;21.27;;
56481;SDS011;42384;45.186;19.958;2023-02-15T00:43:35;31.92;;;19.83;;
56481;SDS011;42384;45.186;19.958;2023-02-15T00:46:02;31.88;;;20.33;;
56481;SDS011;42384;45.186;19.958;2023-02-15T00:48:29;32.00;;;19.88;;
56481;SDS011;42384;45.186;19.958;2023-02-15T00:50:56;33.07;;;20.57;;
56481;SDS011;42384;45.186;19.958;2023-02-15T00:55:48;31.77;;;18.77;;
56481;SDS011;42384;45.186;19.958;2023-02-15T00:58:15;33.80;;;20.73;;
56481;SDS011;42384;45.186;19.958;2023-02-15T01:00:42;31.90;;;20.10;;
56481;SDS011;42384;45.186;19.958;2023-02-15T01:03:09;34.83;;;20.67;;
56481;SDS011;42384;45.186;19.958;2023-02-15T01:05:35;36.47;;;19.80;;
56481;SDS011;42384;45.186;19.958;2023-02-15T01:08:02;34.30;;;20.23;;
56481;SDS011;42384;45.186;19.958;2023-02-15T01:10:28;33.08;;;19.80;;
56481;SDS011;42384;45.186;19.958;2023-02-15T01:12:55;34.00;;;20.57;;
56481;SDS011;42384;45.186;19.958;2023-02-15T01:15:22;32.35;;;19.80;;
56481;SDS011;42384;45.186;19.958;2023-02-15T01:17:49;35.28;;;20.75;;
56481;SDS011;42384;45.186;19.958;2023-02-15T01:20:22;36.50;;;21.15;;
56481;SDS011;42384;45.186;19.958;2023-02-15T01:22:49;33.13;;;19.35;;
56481;SDS011;42384;45.186;19.958;2023-02-15T01:25:18;31.70;;;18.30;;
56481;SDS011;42384;45.186;19.958;2023-02-15T01:27:45;35.25;;;19.92;;
56481;SDS011;42384;45.186;19.958;2023-02-15T01:30:11;33.92;;;20.40;;
56481;SDS011;42384;45.186;19.958;2023-02-15T01:32:38;35.63;;;19.92;;
56481;SDS011;42384;45.186;19.958;2023-02-15T01:35:05;34.05;;;20.08;;
56481;SDS011;42384;45.186;19.958;2023-02-15T01:37:31;38.30;;;20.90;;
56481;SDS011;42384;45.186;19.958;2023-02-15T01:39:58;34.92;;;20.17;;
56481;SDS011;42384;45.186;19.958;2023-02-15T01:42:25;33.58;;;20.00;;
56481;SDS011;42384;45.186;19.958;2023-02-15T01:49:48;35.50;;;20.23;;
56481;SDS011;42384;45.186;19.958;2023-02-15T01:52:16;37.58;;;21.25;;
56481;SDS011;42384;45.186;19.958;2023-02-15T01:54:43;38.38;;;21.05;;
56481;SDS011;42384;45.186;19.958;2023-02-15T01:57:12;33.97;;;20.23;;
56481;SDS011;42384;45.186;19.958;2023-02-15T01:59:39;37.53;;;21.77;;
56481;SDS011;42384;45.186;19.958;2023-02-15T02:02:07;37.13;;;20.80;;
56481;SDS011;42384;45.186;19.958;2023-02-15T02:04:37;36.17;;;20.85;;
56481;SDS011;42384;45.186;19.958;2023-02-15T02:07:06;37.53;;;22.55;;
56481;SDS011;42384;45.186;19.958;2023-02-15T02:09:32;39.50;;;23.25;;
56481;SDS011;42384;45.186;19.958;2023-02-15T02:11:59;36.85;;;21.65;;
56481;SDS011;42384;45.186;19.958;2023-02-15T02:14:25;35.30;;;21.88;;
56481;SDS011;42384;45.186;19.958;2023-02-15T02:35:22;35.45;;;21.83;;
56481;SDS011;42384;45.186;19.958;2023-02-15T02:40:30;38.15;;;22.02;;
56481;SDS011;42384;45.186;19.958;2023-02-15T02:43:10;37.40;;;22.15;;
56481;SDS011;42384;45.186;19.958;2023-02-15T02:45:41;38.53;;;22.25;;
56481;SDS011;42384;45.186;19.958;2023-02-15T02:48:11;36.58;;;21.80;;
56481;SDS011;42384;45.186;19.958;2023-02-15T02:50:39;41.10;;;22.60;;
56481;SDS011;42384;45.186;19.958;2023-02-15T02:53:06;35.70;;;22.38;;
56481;SDS011;42384;45.186;19.958;2023-02-15T02:55:34;38.47;;;22.08;;
56481;SDS011;42384;45.186;19.958;2023-02-15T02:58:13;38.53;;;21.85;;
56481;SDS011;42384;45.186;19.958;2023-02-15T03:03:06;37.90;;;21.90;;
56481;SDS011;42384;45.186;19.958;2023-02-15T03:05:34;41.13;;;23.80;;
56481;SDS011;42384;45.186;19.958;2023-02-15T03:08:02;43.28;;;24.45;;
56481;SDS011;42384;45.186;19.958;2023-02-15T03:10:35;41.67;;;23.60;;
56481;SDS011;42384;45.186;19.958;2023-02-15T03:13:02;44.33;;;23.70;;
56481;SDS011;42384;45.186;19.958;2023-02-15T03:15:29;41.45;;;24.90;;
56481;SDS011;42384;45.186;19.958;2023-02-15T03:18:16;38.78;;;23.10;;
56481;SDS011;42384;45.186;19.958;2023-02-15T03:20:43;41.20;;;23.95;;
56481;SDS011;42384;45.186;19.958;2023-02-15T03:23:12;42.90;;;25.48;;
56481;SDS011;42384;45.186;19.958;2023-02-15T03:25:40;42.70;;;24.20;;
56481;SDS011;42384;45.186;19.958;2023-02-15T03:28:09;42.92;;;25.15;;
56481;SDS011;42384;45.186;19.958;2023-02-15T03:30:36;47.03;;;26.00;;
56481;SDS011;42384;45.186;19.958;2023-02-15T03:33:04;44.58;;;25.02;;
56481;SDS011;42384;45.186;19.958;2023-02-15T03:37:57;40.90;;;24.23;;
56481;SDS011;42384;45.186;19.958;2023-02-15T03:43:15;42.85;;;25.73;;
56481;SDS011;42384;45.186;19.958;2023-02-15T03:45:44;48.60;;;26.42;;
56481;SDS011;42384;45.186;19.958;2023-02-15T03:48:29;41.45;;;24.10;;
56481;SDS011;42384;45.186;19.958;2023-02-15T03:51:00;41.28;;;24.60;;
56481;SDS011;42384;45.186;19.958;2023-02-15T03:53:48;45.67;;;26.33;;
56481;SDS011;42384;45.186;19.958;2023-02-15T03:56:14;45.90;;;25.88;;
56481;SDS011;42384;45.186;19.958;2023-02-15T03:58:41;46.60;;;25.75;;
56481;SDS011;42384;45.186;19.958;2023-02-15T04:01:27;50.20;;;26.45;;
56481;SDS011;42384;45.186;19.958;2023-02-15T04:04:18;45.38;;;26.17;;
56481;SDS011;42384;45.186;19.958;2023-02-15T04:06:45;42.83;;;24.90;;
56481;SDS011;42384;45.186;19.958;2023-02-15T04:09:12;43.67;;;26.05;;
56481;SDS011;42384;45.186;19.958;2023-02-15T04:11:57;44.55;;;23.88;;
56481;SDS011;42384;45.186;19.958;2023-02-15T04:14:23;43.27;;;25.17;;
56481;SDS011;42384;45.186;19.958;2023-02-15T04:17:08;42.72;;;24.92;;
56481;SDS011;42384;45.186;19.958;2023-02-15T04:19:35;46.13;;;25.53;;
56481;SDS011;42384;45.186;19.958;2023-02-15T04:22:20;43.47;;;25.17;;
56481;SDS011;42384;45.186;19.958;2023-02-15T04:25:05;46.13;;;24.17;;
56481;SDS011;42384;45.186;19.958;2023-02-15T04:27:38;49.88;;;24.58;;
56481;SDS011;42384;45.186;19.958;2023-02-15T04:30:05;41.70;;;25.15;;
56481;SDS011;42384;45.186;19.958;2023-02-15T04:32:32;43.58;;;26.23;;
56481;SDS011;42384;45.186;19.958;2023-02-15T04:37:25;46.17;;;24.75;;
56481;SDS011;42384;45.186;19.958;2023-02-15T04:39:51;48.92;;;26.35;;
56481;SDS011;42384;45.186;19.958;2023-02-15T04:42:17;50.05;;;26.58;;
56481;SDS011;42384;45.186;19.958;2023-02-15T04:44:44;47.43;;;25.67;;
56481;SDS011;42384;45.186;19.958;2023-02-15T04:47:10;45.65;;;25.25;;
56481;SDS011;42384;45.186;19.958;2023-02-15T04:49:36;47.57;;;26.03;;
56481;SDS011;42384;45.186;19.958;2023-02-15T04:52:03;45.97;;;25.73;;
56481;SDS011;42384;45.186;19.958;2023-02-15T04:54:29;47.20;;;26.63;;
56481;SDS011;42384;45.186;19.958;2023-02-15T04:56:55;44.22;;;26.15;;
56481;SDS011;42384;45.186;19.958;2023-02-15T04:59:22;45.22;;;25.65;;
56481;SDS011;42384;45.186;19.958;2023-02-15T05:01:48;44.08;;;25.05;;
56481;SDS011;42384;45.186;19.958;2023-02-15T05:04:14;43.53;;;25.73;;
56481;SDS011;42384;45.186;19.958;2023-02-15T05:06:40;44.65;;;25.33;;
56481;SDS011;42384;45.186;19.958;2023-02-15T05:09:06;45.92;;;25.85;;
56481;SDS011;42384;45.186;19.958;2023-02-15T05:11:33;48.58;;;26.77;;
56481;SDS011;42384;45.186;19.958;2023-02-15T05:13:59;47.00;;;26.27;;
56481;SDS011;42384;45.186;19.958;2023-02-15T05:16:25;45.03;;;25.63;;
56481;SDS011;42384;45.186;19.958;2023-02-15T05:18:52;45.38;;;25.05;;
56481;SDS011;42384;45.186;19.958;2023-02-15T05:21:19;45.22;;;24.58;;
56481;SDS011;42384;45.186;19.958;2023-02-15T05:23:45;44.30;;;25.95;;
56481;SDS011;42384;45.186;19.958;2023-02-15T05:26:12;39.45;;;24.38;;
56481;SDS011;42384;45.186;19.958;2023-02-15T05:28:57;48.30;;;26.55;;
56481;SDS011;42384;45.186;19.958;2023-02-15T05:31:23;43.85;;;25.63;;
56481;SDS011;42384;45.186;19.958;2023-02-15T05:33:49;43.22;;;25.60;;
56481;SDS011;42384;45.186;19.958;2023-02-15T05:36:16;46.43;;;24.60;;
56481;SDS011;42384;45.186;19.958;2023-02-15T05:38:42;42.85;;;24.95;;
56481;SDS011;42384;45.186;19.958;2023-02-15T05:41:08;44.13;;;25.45;;
56481;SDS011;42384;45.186;19.958;2023-02-15T05:43:35;44.97;;;25.55;;
56481;SDS011;42384;45.186;19.958;2023-02-15T05:46:02;42.65;;;24.42;;
56481;SDS011;42384;45.186;19.958;2023-02-15T05:48:28;44.95;;;26.38;;
56481;SDS011;42384;45.186;19.958;2023-02-15T05:51:04;53.67;;;28.02;;
56481;SDS011;42384;45.186;19.958;2023-02-15T05:53:32;49.47;;;26.30;;
56481;SDS011;42384;45.186;19.958;2023-02-15T05:55:59;50.08;;;29.83;;
56481;SDS011;42384;45.186;19.958;2023-02-15T05:58:29;51.40;;;30.10;;
56481;SDS011;42384;45.186;19.958;2023-02-15T06:00:56;48.17;;;28.55;;
56481;SDS011;42384;45.186;19.958;2023-02-15T06:03:23;44.63;;;26.50;;
56481;SDS011;42384;45.186;19.958;2023-02-15T06:05:51;49.83;;;28.52;;
56481;SDS011;42384;45.186;19.958;2023-02-15T06:08:17;56.45;;;35.97;;
56481;SDS011;42384;45.186;19.958;2023-02-15T06:10:47;69.55;;;43.80;;
56481;SDS011;42384;45.186;19.958;2023-02-15T06:13:13;64.88;;;38.45;;
56481;SDS011;42384;45.186;19.958;2023-02-15T06:15:39;68.03;;;44.55;;
56481;SDS011;42384;45.186;19.958;2023-02-15T06:18:06;68.97;;;43.15;;
56481;SDS011;42384;45.186;19.958;2023-02-15T06:20:32;65.50;;;42.23;;
56481;SDS011;42384;45.186;19.958;2023-02-15T06:22:58;65.07;;;38.70;;
56481;SDS011;42384;45.186;19.958;2023-02-15T06:25:24;63.33;;;41.00;;
56481;SDS011;42384;45.186;19.958;2023-02-15T06:27:51;63.22;;;38.53;;
56481;SDS011;42384;45.186;19.958;2023-02-15T06:30:17;65.68;;;41.40;;
56481;SDS011;42384;45.186;19.958;2023-02-15T06:32:43;58.47;;;35.50;;
56481;SDS011;42384;45.186;19.958;2023-02-15T06:35:10;56.08;;;36.30;;
56481;SDS011;42384;45.186;19.958;2023-02-15T06:37:36;58.40;;;35.92;;
56481;SDS011;42384;45.186;19.958;2023-02-15T06:40:03;55.60;;;33.63;;
56481;SDS011;42384;45.186;19.958;2023-02-15T06:42:29;52.40;;;32.90;;
56481;SDS011;42384;45.186;19.958;2023-02-15T06:44:55;48.90;;;32.95;;
56481;SDS011;42384;45.186;19.958;2023-02-15T06:47:22;55.03;;;35.65;;
56481;SDS011;42384;45.186;19.958;2023-02-15T06:49:48;52.72;;;33.63;;
56481;SDS011;42384;45.186;19.958;2023-02-15T06:52:14;54.17;;;33.55;;
56481;SDS011;42384;45.186;19.958;2023-02-15T06:54:41;51.72;;;31.20;;
56481;SDS011;42384;45.186;19.958;2023-02-15T06:57:07;55.08;;;32.53;;
56481;SDS011;42384;45.186;19.958;2023-02-15T07:02:00;52.35;;;31.33;;
56481;SDS011;42384;45.186;19.958;2023-02-15T07:04:27;47.00;;;31.20;;
56481;SDS011;42384;45.186;19.958;2023-02-15T07:06:54;52.10;;;31.23;;
56481;SDS011;42384;45.186;19.958;2023-02-15T07:09:21;45.65;;;27.73;;
56481;SDS011;42384;45.186;19.958;2023-02-15T07:11:47;45.38;;;28.08;;
56481;SDS011;42384;45.186;19.958;2023-02-15T07:14:32;49.50;;;30.42;;
56481;SDS011;42384;45.186;19.958;2023-02-15T07:16:58;54.65;;;30.15;;
56481;SDS011;42384;45.186;19.958;2023-02-15T07:19:25;52.97;;;31.67;;
56481;SDS011;42384;45.186;19.958;2023-02-15T07:21:51;51.83;;;32.33;;
56481;SDS011;42384;45.186;19.958;2023-02-15T07:24:17;52.80;;;31.60;;
56481;SDS011;42384;45.186;19.958;2023-02-15T07:26:44;47.97;;;28.65;;
56481;SDS011;42384;45.186;19.958;2023-02-15T07:29:10;47.53;;;27.58;;
56481;SDS011;42384;45.186;19.958;2023-02-15T07:31:36;45.65;;;29.02;;
56481;SDS011;42384;45.186;19.958;2023-02-15T07:34:03;46.33;;;28.97;;
56481;SDS011;42384;45.186;19.958;2023-02-15T07:36:29;50.10;;;29.05;;
56481;SDS011;42384;45.186;19.958;2023-02-15T07:38:55;44.65;;;28.80;;
56481;SDS011;42384;45.186;19.958;2023-02-15T07:41:21;47.85;;;32.58;;
56481;SDS011;42384;45.186;19.958;2023-02-15T07:43:48;59.80;;;41.25;;
56481;SDS011;42384;45.186;19.958;2023-02-15T07:46:15;55.23;;;36.57;;
56481;SDS011;42384;45.186;19.958;2023-02-15T07:51:09;51.45;;;33.03;;
56481;SDS011;42384;45.186;19.958;2023-02-15T07:53:36;52.65;;;33.92;;
56481;SDS011;42384;45.186;19.958;2023-02-15T07:58:29;49.38;;;32.25;;
56481;SDS011;42384;45.186;19.958;2023-02-15T08:01:14;64.50;;;35.55;;
56481;SDS011;42384;45.186;19.958;2023-02-15T08:03:40;59.10;;;41.13;;
56481;SDS011;42384;45.186;19.958;2023-02-15T08:06:07;63.55;;;42.70;;
56481;SDS011;42384;45.186;19.958;2023-02-15T08:08:34;67.30;;;47.10;;
56481;SDS011;42384;45.186;19.958;2023-02-15T08:11:02;69.37;;;41.43;;
56481;SDS011;42384;45.186;19.958;2023-02-15T08:13:47;57.40;;;38.45;;
56481;SDS011;42384;45.186;19.958;2023-02-15T08:16:23;53.63;;;34.63;;
56481;SDS011;42384;45.186;19.958;2023-02-15T08:18:50;50.53;;;32.05;;
56481;SDS011;42384;45.186;19.958;2023-02-15T08:21:16;51.67;;;32.15;;
56481;SDS011;42384;45.186;19.958;2023-02-15T08:23:43;50.00;;;34.00;;
56481;SDS011;42384;45.186;19.958;2023-02-15T08:26:09;52.45;;;34.38;;
56481;SDS011;42384;45.186;19.958;2023-02-15T08:28:35;53.15;;;35.95;;
56481;SDS011;42384;45.186;19.958;2023-02-15T08:31:05;60.87;;;39.57;;
56481;SDS011;42384;45.186;19.958;2023-02-15T08:33:32;55.80;;;36.05;;
56481;SDS011;42384;45.186;19.958;2023-02-15T08:36:02;54.23;;;35.73;;
56481;SDS011;42384;45.186;19.958;2023-02-15T08:38:28;55.40;;;34.88;;
56481;SDS011;42384;45.186;19.958;2023-02-15T08:40:54;55.10;;;34.83;;
56481;SDS011;42384;45.186;19.958;2023-02-15T08:43:21;53.85;;;34.63;;
56481;SDS011;42384;45.186;19.958;2023-02-15T08:45:47;60.63;;;37.97;;
56481;SDS011;42384;45.186;19.958;2023-02-15T08:48:13;54.13;;;35.00;;
56481;SDS011;42384;45.186;19.958;2023-02-15T08:50:39;53.33;;;34.13;;
56481;SDS011;42384;45.186;19.958;2023-02-15T08:53:06;50.08;;;33.20;;
56481;SDS011;42384;45.186;19.958;2023-02-15T08:55:32;50.70;;;33.10;;
56481;SDS011;42384;45.186;19.958;2023-02-15T08:57:58;54.10;;;33.53;;
56481;SDS011;42384;45.186;19.958;2023-02-15T09:00:25;53.70;;;32.88;;
56481;SDS011;42384;45.186;19.958;2023-02-15T09:02:51;47.40;;;29.57;;
56481;SDS011;42384;45.186;19.958;2023-02-15T09:05:17;45.20;;;30.05;;
56481;SDS011;42384;45.186;19.958;2023-02-15T09:07:43;46.78;;;30.35;;
56481;SDS011;42384;45.186;19.958;2023-02-15T09:10:10;43.88;;;28.20;;
56481;SDS011;42384;45.186;19.958;2023-02-15T09:12:36;44.07;;;25.63;;
56481;SDS011;42384;45.186;19.958;2023-02-15T09:15:02;44.27;;;26.93;;
56481;SDS011;42384;45.186;19.958;2023-02-15T09:17:29;45.03;;;27.55;;
56481;SDS011;42384;45.186;19.958;2023-02-15T09:19:55;41.70;;;26.33;;
56481;SDS011;42384;45.186;19.958;2023-02-15T09:22:22;34.92;;;23.40;;
56481;SDS011;42384;45.186;19.958;2023-02-15T09:24:48;36.78;;;23.75;;
56481;SDS011;42384;45.186;19.958;2023-02-15T09:27:14;30.55;;;20.02;;
56481;SDS011;42384;45.186;19.958;2023-02-15T09:29:40;32.13;;;20.70;;
56481;SDS011;42384;45.186;19.958;2023-02-15T09:32:07;33.17;;;20.88;;
56481;SDS011;42384;45.186;19.958;2023-02-15T09:34:33;35.80;;;22.70;;
56481;SDS011;42384;45.186;19.958;2023-02-15T09:36:59;48.60;;;27.53;;
56481;SDS011;42384;45.186;19.958;2023-02-15T09:39:27;34.42;;;21.75;;
56481;SDS011;42384;45.186;19.958;2023-02-15T09:50:17;38.38;;;23.42;;
56481;SDS011;42384;45.186;19.958;2023-02-15T09:52:55;37.60;;;23.10;;
56481;SDS011;42384;45.186;19.958;2023-02-15T10:03:05;35.15;;;21.52;;
56481;SDS011;42384;45.186;19.958;2023-02-15T10:05:58;34.40;;;22.63;;
56481;SDS011;42384;45.186;19.958;2023-02-15T10:14:03;41.72;;;23.83;;
56481;SDS011;42384;45.186;19.958;2023-02-15T10:26:48;49.30;;;30.65;;
56481;SDS011;42384;45.186;19.958;2023-02-15T10:34:22;43.83;;;26.52;;
56481;SDS011;42384;45.186;19.958;2023-02-15T10:45:14;42.65;;;26.30;;
56481;SDS011;42384;45.186;19.958;2023-02-15T10:50:33;44.53;;;26.10;;
56481;SDS011;42384;45.186;19.958;2023-02-15T11:00:59;39.38;;;25.65;;
56481;SDS011;42384;45.186;19.958;2023-02-15T11:06:24;41.53;;;23.88;;
56481;SDS011;42384;45.186;19.958;2023-02-15T11:09:02;43.10;;;25.95;;
56481;SDS011;42384;45.186;19.958;2023-02-15T11:14:42;39.55;;;24.13;;
56481;SDS011;42384;45.186;19.958;2023-02-15T11:16:46;38.85;;;24.00;;
56481;SDS011;42384;45.186;19.958;2023-02-15T11:19:27;39.80;;;24.02;;
56481;SDS011;42384;45.186;19.958;2023-02-15T11:21:59;39.45;;;25.13;;
56481;SDS011;42384;45.186;19.958;2023-02-15T11:24:26;36.58;;;23.30;;
56481;SDS011;42384;45.186;19.958;2023-02-15T11:37:50;40.13;;;24.08;;
56481;SDS011;42384;45.186;19.958;2023-02-15T11:40:19;33.90;;;21.55;;
56481;SDS011;42384;45.186;19.958;2023-02-15T11:42:47;38.13;;;24.40;;
56481;SDS011;42384;45.186;19.958;2023-02-15T11:47:46;36.88;;;24.08;;
56481;SDS011;42384;45.186;19.958;2023-02-15T11:50:16;36.70;;;24.02;;
56481;SDS011;42384;45.186;19.958;2023-02-15T11:52:43;36.40;;;23.55;;
56481;SDS011;42384;45.186;19.958;2023-02-15T11:55:14;36.50;;;23.30;;
56481;SDS011;42384;45.186;19.958;2023-02-15T11:57:44;36.35;;;23.10;;
56481;SDS011;42384;45.186;19.958;2023-02-15T12:00:14;37.25;;;23.27;;
56481;SDS011;42384;45.186;19.958;2023-02-15T12:02:42;36.47;;;22.98;;
56481;SDS011;42384;45.186;19.958;2023-02-15T12:05:12;37.20;;;24.00;;
56481;SDS011;42384;45.186;19.958;2023-02-15T12:07:43;35.20;;;23.52;;
56481;SDS011;42384;45.186;19.958;2023-02-15T12:10:18;34.55;;;23.10;;
56481;SDS011;42384;45.186;19.958;2023-02-15T12:12:46;37.38;;;23.98;;
56481;SDS011;42384;45.186;19.958;2023-02-15T12:15:13;39.80;;;25.17;;
56481;SDS011;42384;45.186;19.958;2023-02-15T12:22:38;41.97;;;26.10;;
56481;SDS011;42384;45.186;19.958;2023-02-15T12:27:46;44.80;;;26.38;;
56481;SDS011;42384;45.186;19.958;2023-02-15T12:38:00;50.25;;;25.13;;
56481;SDS011;42384;45.186;19.958;2023-02-15T12:40:28;39.72;;;26.67;;
56481;SDS011;42384;45.186;19.958;2023-02-15T12:42:54;39.53;;;26.33;;
56481;SDS011;42384;45.186;19.958;2023-02-15T12:45:22;40.93;;;27.40;;
56481;SDS011;42384;45.186;19.958;2023-02-15T12:50:35;40.88;;;26.33;;
56481;SDS011;42384;45.186;19.958;2023-02-15T12:53:20;45.03;;;27.30;;
56481;SDS011;42384;45.186;19.958;2023-02-15T12:58:20;45.97;;;27.42;;
56481;SDS011;42384;45.186;19.958;2023-02-15T13:00:47;42.58;;;28.20;;
56481;SDS011;42384;45.186;19.958;2023-02-15T13:03:17;43.45;;;26.92;;
56481;SDS011;42384;45.186;19.958;2023-02-15T13:05:44;43.25;;;26.85;;
56481;SDS011;42384;45.186;19.958;2023-02-15T13:08:15;41.35;;;28.10;;
56481;SDS011;42384;45.186;19.958;2023-02-15T13:10:53;42.72;;;27.60;;
56481;SDS011;42384;45.186;19.958;2023-02-15T13:13:21;43.85;;;25.98;;
56481;SDS011;42384;45.186;19.958;2023-02-15T13:15:49;42.45;;;27.02;;
56481;SDS011;42384;45.186;19.958;2023-02-15T13:18:17;44.65;;;27.83;;
56481;SDS011;42384;45.186;19.958;2023-02-15T13:20:45;42.75;;;28.23;;
56481;SDS011;42384;45.186;19.958;2023-02-15T13:23:21;45.58;;;29.30;;
56481;SDS011;42384;45.186;19.958;2023-02-15T13:28:18;39.45;;;27.63;;
56481;SDS011;42384;45.186;19.958;2023-02-15T13:30:46;42.47;;;27.23;;
56481;SDS011;42384;45.186;19.958;2023-02-15T13:33:25;57.42;;;35.45;;
56481;SDS011;42384;45.186;19.958;2023-02-15T13:41:27;44.50;;;28.10;;
56481;SDS011;42384;45.186;19.958;2023-02-15T13:44:06;43.22;;;28.33;;
56481;SDS011;42384;45.186;19.958;2023-02-15T14:02:35;43.60;;;28.75;;
56481;SDS011;42384;45.186;19.958;2023-02-15T14:05:15;47.75;;;28.45;;
56481;SDS011;42384;45.186;19.958;2023-02-15T14:13:42;43.63;;;26.95;;
56481;SDS011;42384;45.186;19.958;2023-02-15T14:16:13;41.78;;;26.55;;
56481;SDS011;42384;45.186;19.958;2023-02-15T14:18:57;41.88;;;27.48;;
56481;SDS011;42384;45.186;19.958;2023-02-15T14:21:32;41.08;;;26.60;;
56481;SDS011;42384;45.186;19.958;2023-02-15T14:31:42;44.25;;;28.73;;
56481;SDS011;42384;45.186;19.958;2023-02-15T14:34:29;39.45;;;26.50;;
56481;SDS011;42384;45.186;19.958;2023-02-15T14:36:56;44.88;;;29.65;;
56481;SDS011;42384;45.186;19.958;2023-02-15T14:39:36;45.40;;;27.58;;
56481;SDS011;42384;45.186;19.958;2023-02-15T14:45:02;45.33;;;27.80;;
56481;SDS011;42384;45.186;19.958;2023-02-15T14:47:37;44.35;;;28.70;;
56481;SDS011;42384;45.186;19.958;2023-02-15T14:50:47;43.67;;;27.40;;
56481;SDS011;42384;45.186;19.958;2023-02-15T14:55:39;40.40;;;25.85;;
56481;SDS011;42384;45.186;19.958;2023-02-15T14:58:09;41.72;;;27.70;;
56481;SDS011;42384;45.186;19.958;2023-02-15T15:00:37;41.70;;;27.00;;
56481;SDS011;42384;45.186;19.958;2023-02-15T15:03:10;45.33;;;29.08;;
56481;SDS011;42384;45.186;19.958;2023-02-15T15:05:46;46.97;;;29.75;;
56481;SDS011;42384;45.186;19.958;2023-02-15T15:08:25;44.25;;;28.27;;
56481;SDS011;42384;45.186;19.958;2023-02-15T15:10:52;41.47;;;27.95;;
56481;SDS011;42384;45.186;19.958;2023-02-15T15:18:43;45.70;;;30.10;;
56481;SDS011;42384;45.186;19.958;2023-02-15T15:21:10;45.55;;;28.77;;
56481;SDS011;42384;45.186;19.958;2023-02-15T15:31:25;46.25;;;30.42;;
56481;SDS011;42384;45.186;19.958;2023-02-15T15:36:34;47.60;;;29.55;;
56481;SDS011;42384;45.186;19.958;2023-02-15T15:47:29;48.13;;;29.35;;
56481;SDS011;42384;45.186;19.958;2023-02-15T15:49:59;47.90;;;29.58;;
56481;SDS011;42384;45.186;19.958;2023-02-15T15:52:26;45.58;;;28.42;;
56481;SDS011;42384;45.186;19.958;2023-02-15T15:54:54;43.78;;;26.75;;
56481;SDS011;42384;45.186;19.958;2023-02-15T15:57:28;44.50;;;28.90;;
56481;SDS011;42384;45.186;19.958;2023-02-15T15:59:56;45.35;;;27.27;;
56481;SDS011;42384;45.186;19.958;2023-02-15T16:02:25;47.60;;;27.83;;
56481;SDS011;42384;45.186;19.958;2023-02-15T16:04:52;46.00;;;28.33;;
56481;SDS011;42384;45.186;19.958;2023-02-15T16:09:58;44.43;;;27.50;;
56481;SDS011;42384;45.186;19.958;2023-02-15T16:12:25;44.72;;;28.73;;
56481;SDS011;42384;45.186;19.958;2023-02-15T16:17:25;47.25;;;28.58;;
56481;SDS011;42384;45.186;19.958;2023-02-15T16:19:53;47.00;;;29.02;;
56481;SDS011;42384;45.186;19.958;2023-02-15T16:22:24;47.88;;;29.83;;
56481;SDS011;42384;45.186;19.958;2023-02-15T16:25:27;48.03;;;30.00;;
56481;SDS011;42384;45.186;19.958;2023-02-15T16:27:44;43.50;;;28.25;;
56481;SDS011;42384;45.186;19.958;2023-02-15T16:30:27;46.67;;;28.67;;
56481;SDS011;42384;45.186;19.958;2023-02-15T16:32:54;51.42;;;29.92;;
56481;SDS011;42384;45.186;19.958;2023-02-15T16:35:21;45.70;;;28.20;;
56481;SDS011;42384;45.186;19.958;2023-02-15T16:37:48;46.88;;;28.48;;
56481;SDS011;42384;45.186;19.958;2023-02-15T16:42:50;45.78;;;28.52;;
56481;SDS011;42384;45.186;19.958;2023-02-15T16:45:18;45.45;;;28.98;;
56481;SDS011;42384;45.186;19.958;2023-02-15T16:47:46;46.63;;;28.00;;
56481;SDS011;42384;45.186;19.958;2023-02-15T16:50:20;43.90;;;29.00;;
56481;SDS011;42384;45.186;19.958;2023-02-15T16:52:48;48.08;;;27.80;;
56481;SDS011;42384;45.186;19.958;2023-02-15T16:55:22;44.45;;;28.38;;
56481;SDS011;42384;45.186;19.958;2023-02-15T16:57:48;47.65;;;27.52;;
56481;SDS011;42384;45.186;19.958;2023-02-15T17:00:18;51.88;;;28.60;;
56481;SDS011;42384;45.186;19.958;2023-02-15T17:05:40;41.13;;;26.40;;
56481;SDS011;42384;45.186;19.958;2023-02-15T17:10:34;44.38;;;27.05;;
56481;SDS011;42384;45.186;19.958;2023-02-15T17:13:02;43.10;;;26.40;;
56481;SDS011;42384;45.186;19.958;2023-02-15T17:18:20;49.83;;;29.08;;
56481;SDS011;42384;45.186;19.958;2023-02-15T17:20:45;48.38;;;28.48;;
56481;SDS011;42384;45.186;19.958;2023-02-15T17:25:38;52.97;;;32.78;;
56481;SDS011;42384;45.186;19.958;2023-02-15T17:28:05;48.70;;;30.38;;
56481;SDS011;42384;45.186;19.958;2023-02-15T17:30:40;50.80;;;29.92;;
56481;SDS011;42384;45.186;19.958;2023-02-15T17:33:19;48.47;;;28.55;;
56481;SDS011;42384;45.186;19.958;2023-02-15T17:35:51;44.25;;;28.17;;
56481;SDS011;42384;45.186;19.958;2023-02-15T17:38:27;46.90;;;27.50;;
56481;SDS011;42384;45.186;19.958;2023-02-15T17:40:54;51.30;;;29.10;;
56481;SDS011;42384;45.186;19.958;2023-02-15T17:43:21;43.97;;;27.10;;
56481;SDS011;42384;45.186;19.958;2023-02-15T17:45:48;45.63;;;28.40;;
56481;SDS011;42384;45.186;19.958;2023-02-15T17:50:41;47.55;;;28.20;;
56481;SDS011;42384;45.186;19.958;2023-02-15T17:53:07;49.53;;;30.13;;
56481;SDS011;42384;45.186;19.958;2023-02-15T17:55:34;52.13;;;30.52;;
56481;SDS011;42384;45.186;19.958;2023-02-15T17:58:07;47.83;;;30.10;;
56481;SDS011;42384;45.186;19.958;2023-02-15T18:00:34;54.65;;;31.38;;
56481;SDS011;42384;45.186;19.958;2023-02-15T18:03:19;47.95;;;29.65;;
56481;SDS011;42384;45.186;19.958;2023-02-15T18:06:04;50.97;;;29.33;;
56481;SDS011;42384;45.186;19.958;2023-02-15T18:08:49;46.55;;;27.92;;
56481;SDS011;42384;45.186;19.958;2023-02-15T18:11:34;46.38;;;26.92;;
56481;SDS011;42384;45.186;19.958;2023-02-15T18:14:04;46.20;;;26.92;;